sensor_id;sensor_type;location;lat;lon;timestamp;pressure;altitude;pressure_sealevel;temperature;humidity
68656;BME280;55638;51.122;13.606;2023-05-07T00:00:56;100517.16;;;8.90;57.89
68656;BME280;55638;51.122;13.606;2023-05-07T00:02:27;100522.53;;;8.90;57.72
68656;BME280;55638;51.122;13.606;2023-05-07T00:03:59;100522.66;;;8.89;57.88
68656;BME280;55638;51.122;13.606;2023-05-07T00:05:32;100535.25;;;8.88;57.80
68656;BME280;55638;51.122;13.606;2023-05-07T00:07:04;100528.13;;;8.87;57.85
68656;BME280;55638;51.122;13.606;2023-05-07T00:08:35;100530.81;;;8.87;57.87
68656;BME280;55638;51.122;13.606;2023-05-07T00:10:08;100529.88;;;8.88;57.97
68656;BME280;55638;51.122;13.606;2023-05-07T00:11:40;100530.75;;;8.89;57.77
68656;BME280;55638;51.122;13.606;2023-05-07T00:13:12;100529.88;;;8.88;57.94
68656;BME280;55638;51.122;13.606;2023-05-07T00:14:44;100529.88;;;8.88;57.72
68656;BME280;55638;51.122;13.606;2023-05-07T00:16:17;100523.66;;;8.88;57.76
68656;BME280;55638;51.122;13.606;2023-05-07T00:17:49;100525.44;;;8.87;57.94
68656;BME280;55638;51.122;13.606;2023-05-07T00:19:20;100521.06;;;8.86;57.87
68656;BME280;55638;51.122;13.606;2023-05-07T00:20:52;100521.06;;;8.86;58.00
68656;BME280;55638;51.122;13.606;2023-05-07T00:22:24;100526.44;;;8.86;57.93
68656;BME280;55638;51.122;13.606;2023-05-07T00:23:56;100521.06;;;8.86;58.09
68656;BME280;55638;51.122;13.606;2023-05-07T00:25:28;100524.72;;;8.85;58.29
68656;BME280;55638;51.122;13.606;2023-05-07T00:27:00;100523.75;;;8.86;58.07
68656;BME280;55638;51.122;13.606;2023-05-07T00:28:32;100527.19;;;8.88;57.99
68656;BME280;55638;51.122;13.606;2023-05-07T00:30:05;100524.59;;;8.87;57.79
68656;BME280;55638;51.122;13.606;2023-05-07T00:31:38;100531.59;;;8.89;57.85
68656;BME280;55638;51.122;13.606;2023-05-07T00:33:10;100525.44;;;8.87;57.80
68656;BME280;55638;51.122;13.606;2023-05-07T00:34:43;100528.13;;;8.87;57.66
68656;BME280;55638;51.122;13.606;2023-05-07T00:36:14;100534.50;;;8.86;57.78
68656;BME280;55638;51.122;13.606;2023-05-07T00:37:46;100531.81;;;8.86;57.67
68656;BME280;55638;51.122;13.606;2023-05-07T00:39:19;100529.25;;;8.85;57.75
68656;BME280;55638;51.122;13.606;2023-05-07T00:40:52;100532.03;;;8.83;57.73
68656;BME280;55638;51.122;13.606;2023-05-07T00:42:24;100523.19;;;8.81;57.83
68656;BME280;55638;51.122;13.606;2023-05-07T00:43:56;100527.84;;;8.79;58.04
68656;BME280;55638;51.122;13.606;2023-05-07T00:45:28;100525.16;;;8.79;58.10
68656;BME280;55638;51.122;13.606;2023-05-07T00:47:02;100521.69;;;8.77;58.41
68656;BME280;55638;51.122;13.606;2023-05-07T00:48:34;100517.31;;;8.76;58.27
68656;BME280;55638;51.122;13.606;2023-05-07T00:50:07;100515.47;;;8.76;58.27
68656;BME280;55638;51.122;13.606;2023-05-07T00:51:40;100514.72;;;8.74;58.27
68656;BME280;55638;51.122;13.606;2023-05-07T00:53:12;100516.53;;;8.74;58.36
68656;BME280;55638;51.122;13.606;2023-05-07T00:54:44;100523.66;;;8.75;58.34
68656;BME280;55638;51.122;13.606;2023-05-07T00:56:16;100516.53;;;8.74;58.20
68656;BME280;55638;51.122;13.606;2023-05-07T00:57:49;100528.28;;;8.73;58.42
68656;BME280;55638;51.122;13.606;2023-05-07T00:59:22;100526.56;;;8.72;58.30
68656;BME280;55638;51.122;13.606;2023-05-07T01:00:53;100527.28;;;8.74;58.31
68656;BME280;55638;51.122;13.606;2023-05-07T01:02:26;100520.22;;;8.73;58.37
68656;BME280;55638;51.122;13.606;2023-05-07T01:03:58;100518.28;;;8.75;58.19
68656;BME280;55638;51.122;13.606;2023-05-07T01:05:30;100513.84;;;8.74;58.23
68656;BME280;55638;51.122;13.606;2023-05-07T01:07:03;100518.28;;;8.75;58.25
68656;BME280;55638;51.122;13.606;2023-05-07T01:08:35;100523.66;;;8.75;58.18
68656;BME280;55638;51.122;13.606;2023-05-07T01:10:09;100524.50;;;8.75;58.19
68656;BME280;55638;51.122;13.606;2023-05-07T01:11:43;100511.16;;;8.74;58.36
68656;BME280;55638;51.122;13.606;2023-05-07T01:13:15;100518.28;;;8.75;58.12
68656;BME280;55638;51.122;13.606;2023-05-07T01:14:48;100525.38;;;8.76;58.27
68656;BME280;55638;51.122;13.606;2023-05-07T01:16:21;100517.31;;;8.76;58.17
68656;BME280;55638;51.122;13.606;2023-05-07T01:17:56;100523.53;;;8.76;58.13
68656;BME280;55638;51.122;13.606;2023-05-07T01:19:34;100523.44;;;8.78;58.11
68656;BME280;55638;51.122;13.606;2023-05-07T01:21:08;100538.59;;;8.79;58.26
68656;BME280;55638;51.122;13.606;2023-05-07T01:22:42;100525.16;;;8.79;58.01
68656;BME280;55638;51.122;13.606;2023-05-07T01:24:15;100535.06;;;8.78;58.15
68656;BME280;55638;51.122;13.606;2023-05-07T01:25:54;100527.94;;;8.77;58.29
68656;BME280;55638;51.122;13.606;2023-05-07T01:27:29;100526.22;;;8.76;58.31
68656;BME280;55638;51.122;13.606;2023-05-07T01:29:01;100525.38;;;8.76;58.13
68656;BME280;55638;51.122;13.606;2023-05-07T01:30:34;100527.06;;;8.77;58.37
68656;BME280;55638;51.122;13.606;2023-05-07T01:32:11;100536.88;;;8.78;58.36
68656;BME280;55638;51.122;13.606;2023-05-07T01:33:45;100536.00;;;8.77;58.37
68656;BME280;55638;51.122;13.606;2023-05-07T01:35:25;100536.97;;;8.76;58.47
68656;BME280;55638;51.122;13.606;2023-05-07T01:36:59;100529.75;;;8.77;58.44
68656;BME280;55638;51.122;13.606;2023-05-07T01:38:31;100536.88;;;8.78;58.33
68656;BME280;55638;51.122;13.606;2023-05-07T01:40:03;100537.75;;;8.78;58.23
68656;BME280;55638;51.122;13.606;2023-05-07T01:41:37;100540.31;;;8.80;58.25
68656;BME280;55638;51.122;13.606;2023-05-07T01:43:09;100543.97;;;8.79;58.21
68656;BME280;55638;51.122;13.606;2023-05-07T01:44:41;100545.81;;;8.78;58.25
68656;BME280;55638;51.122;13.606;2023-05-07T01:46:13;100546.66;;;8.79;58.22
68656;BME280;55638;51.122;13.606;2023-05-07T01:47:46;100540.44;;;8.78;58.29
68656;BME280;55638;51.122;13.606;2023-05-07T01:49:19;100532.38;;;8.78;58.08
68656;BME280;55638;51.122;13.606;2023-05-07T01:50:51;100541.28;;;8.79;58.26
68656;BME280;55638;51.122;13.606;2023-05-07T01:52:23;100533.22;;;8.79;58.22
68656;BME280;55638;51.122;13.606;2023-05-07T01:53:57;100535.91;;;8.79;58.20
68656;BME280;55638;51.122;13.606;2023-05-07T01:55:29;100528.69;;;8.79;58.44
68656;BME280;55638;51.122;13.606;2023-05-07T01:57:02;100529.56;;;8.80;58.46
68656;BME280;55638;51.122;13.606;2023-05-07T01:58:34;100528.56;;;8.81;58.44
68656;BME280;55638;51.122;13.606;2023-05-07T02:00:07;100526.78;;;8.82;58.59
68656;BME280;55638;51.122;13.606;2023-05-07T02:01:47;100529.34;;;8.83;58.44
68656;BME280;55638;51.122;13.606;2023-05-07T02:03:19;100539.03;;;8.86;58.32
68656;BME280;55638;51.122;13.606;2023-05-07T02:05:00;100539.88;;;8.86;58.31
68656;BME280;55638;51.122;13.606;2023-05-07T02:06:33;100540.72;;;8.87;58.39
68656;BME280;55638;51.122;13.606;2023-05-07T02:08:08;100545.16;;;8.88;58.44
68656;BME280;55638;51.122;13.606;2023-05-07T02:09:40;100544.19;;;8.89;58.38
68656;BME280;55638;51.122;13.606;2023-05-07T02:11:12;100546.88;;;8.89;58.20
68656;BME280;55638;51.122;13.606;2023-05-07T02:12:45;100540.63;;;8.88;58.23
68656;BME280;55638;51.122;13.606;2023-05-07T02:14:17;100543.31;;;8.88;58.21
68656;BME280;55638;51.122;13.606;2023-05-07T02:15:48;100540.63;;;8.88;58.43
68656;BME280;55638;51.122;13.606;2023-05-07T02:17:22;100551.25;;;8.90;58.40
68656;BME280;55638;51.122;13.606;2023-05-07T02:18:54;100554.06;;;8.88;58.16
68656;BME280;55638;51.122;13.606;2023-05-07T02:20:27;100543.31;;;8.88;58.54
68656;BME280;55638;51.122;13.606;2023-05-07T02:21:59;100555.03;;;8.87;58.49
68656;BME280;55638;51.122;13.606;2023-05-07T02:23:34;100558.47;;;8.89;58.60
68656;BME280;55638;51.122;13.606;2023-05-07T02:25:06;100559.34;;;8.90;58.55
68656;BME280;55638;51.122;13.606;2023-05-07T02:26:40;100563.72;;;8.91;58.50
68656;BME280;55638;51.122;13.606;2023-05-07T02:28:13;100563.84;;;8.89;58.53
68656;BME280;55638;51.122;13.606;2023-05-07T02:29:57;100550.28;;;8.91;58.43
68656;BME280;55638;51.122;13.606;2023-05-07T02:31:29;100548.50;;;8.91;58.37
68656;BME280;55638;51.122;13.606;2023-05-07T02:33:01;100549.44;;;8.90;58.45
68656;BME280;55638;51.122;13.606;2023-05-07T02:34:33;100560.94;;;8.92;58.42
68656;BME280;55638;51.122;13.606;2023-05-07T02:36:09;100551.16;;;8.91;58.54
68656;BME280;55638;51.122;13.606;2023-05-07T02:37:59;100552.03;;;8.92;58.19
68656;BME280;55638;51.122;13.606;2023-05-07T02:39:31;100551.16;;;8.91;58.25
68656;BME280;55638;51.122;13.606;2023-05-07T02:41:03;100548.50;;;8.91;58.34
68656;BME280;55638;51.122;13.606;2023-05-07T02:42:35;100552.97;;;8.91;58.25
68656;BME280;55638;51.122;13.606;2023-05-07T02:44:07;100562.78;;;8.92;58.37
68656;BME280;55638;51.122;13.606;2023-05-07T02:45:39;100563.72;;;8.91;58.32
68656;BME280;55638;51.122;13.606;2023-05-07T02:47:13;100549.44;;;8.90;58.37
68656;BME280;55638;51.122;13.606;2023-05-07T02:48:47;100545.88;;;8.90;58.34
68656;BME280;55638;51.122;13.606;2023-05-07T02:50:18;100555.78;;;8.89;58.36
68656;BME280;55638;51.122;13.606;2023-05-07T02:51:50;100543.19;;;8.90;58.31
68656;BME280;55638;51.122;13.606;2023-05-07T02:53:26;100548.56;;;8.90;58.31
68656;BME280;55638;51.122;13.606;2023-05-07T02:54:58;100554.06;;;8.88;58.41
68656;BME280;55638;51.122;13.606;2023-05-07T02:56:30;100555.03;;;8.87;58.49
68656;BME280;55638;51.122;13.606;2023-05-07T02:58:02;100553.09;;;8.89;58.17
68656;BME280;55638;51.122;13.606;2023-05-07T02:59:37;100552.34;;;8.87;58.16
68656;BME280;55638;51.122;13.606;2023-05-07T03:01:09;100545.16;;;8.88;58.07
68656;BME280;55638;51.122;13.606;2023-05-07T03:03:01;100543.53;;;8.85;57.99
68656;BME280;55638;51.122;13.606;2023-05-07T03:04:33;100553.53;;;8.83;58.08
68656;BME280;55638;51.122;13.606;2023-05-07T03:06:06;100551.81;;;8.82;58.09
68656;BME280;55638;51.122;13.606;2023-05-07T03:07:38;100545.59;;;8.82;58.13
68656;BME280;55638;51.122;13.606;2023-05-07T03:09:10;100546.66;;;8.79;58.16
68656;BME280;55638;51.122;13.606;2023-05-07T03:10:42;100544.19;;;8.76;58.23
68656;BME280;55638;51.122;13.606;2023-05-07T03:12:14;100539.78;;;8.75;58.19
68656;BME280;55638;51.122;13.606;2023-05-07T03:13:46;100544.28;;;8.74;58.14
68656;BME280;55638;51.122;13.606;2023-05-07T03:15:18;100542.56;;;8.73;57.98
68656;BME280;55638;51.122;13.606;2023-05-07T03:16:50;100544.50;;;8.71;58.20
68656;BME280;55638;51.122;13.606;2023-05-07T03:18:22;100550.00;;;8.70;58.21
68656;BME280;55638;51.122;13.606;2023-05-07T03:19:54;100550.09;;;8.68;58.41
68656;BME280;55638;51.122;13.606;2023-05-07T03:21:26;100554.59;;;8.68;58.31
68656;BME280;55638;51.122;13.606;2023-05-07T03:22:58;100549.44;;;8.65;58.58
68656;BME280;55638;51.122;13.606;2023-05-07T03:24:30;100563.00;;;8.63;58.43
68656;BME280;55638;51.122;13.606;2023-05-07T03:26:02;100555.06;;;8.62;58.56
68656;BME280;55638;51.122;13.606;2023-05-07T03:27:34;100555.91;;;8.62;58.62
68656;BME280;55638;51.122;13.606;2023-05-07T03:29:06;100553.31;;;8.61;58.64
68656;BME280;55638;51.122;13.606;2023-05-07T03:30:38;100556.84;;;8.61;58.53
68656;BME280;55638;51.122;13.606;2023-05-07T03:32:10;100567.72;;;8.60;58.80
68656;BME280;55638;51.122;13.606;2023-05-07T03:33:56;100566.88;;;8.59;58.90
68656;BME280;55638;51.122;13.606;2023-05-07T03:35:28;100574.94;;;8.59;58.34
68656;BME280;55638;51.122;13.606;2023-05-07T03:37:00;100564.28;;;8.57;58.24
68656;BME280;55638;51.122;13.606;2023-05-07T03:38:32;100561.78;;;8.54;58.34
68656;BME280;55638;51.122;13.606;2023-05-07T03:40:05;100566.44;;;8.52;58.37
68656;BME280;55638;51.122;13.606;2023-05-07T03:41:45;100566.63;;;8.49;58.57
68656;BME280;55638;51.122;13.606;2023-05-07T03:43:17;100560.63;;;8.46;58.28
68656;BME280;55638;51.122;13.606;2023-05-07T03:44:54;100566.84;;;8.46;58.36
68656;BME280;55638;51.122;13.606;2023-05-07T03:46:25;100565.34;;;8.42;58.33
68656;BME280;55638;51.122;13.606;2023-05-07T03:47:58;100573.63;;;8.39;58.63
68656;BME280;55638;51.122;13.606;2023-05-07T03:49:30;100568.44;;;8.36;58.52
68656;BME280;55638;51.122;13.606;2023-05-07T03:51:03;100568.53;;;8.35;58.40
68656;BME280;55638;51.122;13.606;2023-05-07T03:52:37;100576.81;;;8.31;58.63
68656;BME280;55638;51.122;13.606;2023-05-07T03:54:10;100568.09;;;8.28;58.75
68656;BME280;55638;51.122;13.606;2023-05-07T03:55:46;100572.72;;;8.26;58.68
68656;BME280;55638;51.122;13.606;2023-05-07T03:57:18;100571.00;;;8.25;58.80
68656;BME280;55638;51.122;13.606;2023-05-07T03:58:50;100577.38;;;8.22;58.92
68656;BME280;55638;51.122;13.606;2023-05-07T04:00:23;100568.38;;;8.23;58.83
68656;BME280;55638;51.122;13.606;2023-05-07T04:01:55;100576.53;;;8.22;58.91
68656;BME280;55638;51.122;13.606;2023-05-07T04:03:29;100578.47;;;8.20;58.80
68656;BME280;55638;51.122;13.606;2023-05-07T04:05:03;100571.38;;;8.19;58.91
68656;BME280;55638;51.122;13.606;2023-05-07T04:06:35;100571.50;;;8.17;59.17
68656;BME280;55638;51.122;13.606;2023-05-07T04:08:07;100573.41;;;8.15;59.11
68656;BME280;55638;51.122;13.606;2023-05-07T04:09:43;100572.34;;;8.18;59.31
68656;BME280;55638;51.122;13.606;2023-05-07T04:11:15;100567.94;;;8.17;59.39
68656;BME280;55638;51.122;13.606;2023-05-07T04:12:47;100568.69;;;8.19;59.21
68656;BME280;55638;51.122;13.606;2023-05-07T04:14:23;100579.34;;;8.20;59.14
68656;BME280;55638;51.122;13.606;2023-05-07T04:15:56;100577.50;;;8.21;59.29
68656;BME280;55638;51.122;13.606;2023-05-07T04:17:29;100579.34;;;8.20;59.56
68656;BME280;55638;51.122;13.606;2023-05-07T04:19:00;100572.13;;;8.21;59.33
68656;BME280;55638;51.122;13.606;2023-05-07T04:20:34;100580.97;;;8.23;59.42
68656;BME280;55638;51.122;13.606;2023-05-07T04:22:11;100579.03;;;8.25;59.44
68656;BME280;55638;51.122;13.606;2023-05-07T04:23:43;100579.03;;;8.25;59.46
68656;BME280;55638;51.122;13.606;2023-05-07T04:25:17;100581.66;;;8.26;59.40
68656;BME280;55638;51.122;13.606;2023-05-07T04:26:49;100595.72;;;8.30;59.28
68656;BME280;55638;51.122;13.606;2023-05-07T04:28:24;100598.22;;;8.33;59.69
68656;BME280;55638;51.122;13.606;2023-05-07T04:29:57;100599.06;;;8.33;59.60
68656;BME280;55638;51.122;13.606;2023-05-07T04:31:29;100601.53;;;8.37;59.93
68656;BME280;55638;51.122;13.606;2023-05-07T04:33:03;100593.28;;;8.40;59.85
68656;BME280;55638;51.122;13.606;2023-05-07T04:34:35;100602.97;;;8.42;60.00
68656;BME280;55638;51.122;13.606;2023-05-07T04:36:07;100591.97;;;8.45;60.10
68656;BME280;55638;51.122;13.606;2023-05-07T04:37:46;100606.81;;;8.51;59.89
68656;BME280;55638;51.122;13.606;2023-05-07T04:39:18;100604.69;;;8.56;59.64
68656;BME280;55638;51.122;13.606;2023-05-07T04:40:52;100615.22;;;8.59;59.35
68656;BME280;55638;51.122;13.606;2023-05-07T04:42:27;100613.19;;;8.63;59.34
68656;BME280;55638;51.122;13.606;2023-05-07T04:43:59;100613.00;;;8.66;59.37
68656;BME280;55638;51.122;13.606;2023-05-07T04:45:34;100610.94;;;8.69;59.25
68656;BME280;55638;51.122;13.606;2023-05-07T04:47:06;100619.75;;;8.71;59.33
68656;BME280;55638;51.122;13.606;2023-05-07T04:48:38;100613.50;;;8.71;59.24
68656;BME280;55638;51.122;13.606;2023-05-07T04:50:11;100611.59;;;8.73;59.24
68656;BME280;55638;51.122;13.606;2023-05-07T04:51:45;100615.78;;;8.77;59.15
68656;BME280;55638;51.122;13.606;2023-05-07T04:53:19;100621.81;;;8.80;59.08
68656;BME280;55638;51.122;13.606;2023-05-07T04:54:52;100609.22;;;8.81;59.11
68656;BME280;55638;51.122;13.606;2023-05-07T04:56:27;100626.03;;;8.85;59.19
68656;BME280;55638;51.122;13.606;2023-05-07T04:57:59;100632.03;;;8.88;59.05
68656;BME280;55638;51.122;13.606;2023-05-07T04:59:35;100624.72;;;8.90;59.12
68656;BME280;55638;51.122;13.606;2023-05-07T05:01:07;100627.09;;;8.95;59.12
68656;BME280;55638;51.122;13.606;2023-05-07T05:02:39;100625.06;;;8.98;58.98
68656;BME280;55638;51.122;13.606;2023-05-07T05:04:11;100633.84;;;9.00;58.82
68656;BME280;55638;51.122;13.606;2023-05-07T05:05:44;100633.63;;;9.03;58.67
68656;BME280;55638;51.122;13.606;2023-05-07T05:07:16;100627.31;;;9.05;58.84
68656;BME280;55638;51.122;13.606;2023-05-07T05:08:48;100628.81;;;9.09;58.93
68656;BME280;55638;51.122;13.606;2023-05-07T05:10:21;100630.53;;;9.10;59.07
68656;BME280;55638;51.122;13.606;2023-05-07T05:11:55;100630.22;;;9.14;58.96
68656;BME280;55638;51.122;13.606;2023-05-07T05:13:27;100632.56;;;9.19;58.68
68656;BME280;55638;51.122;13.606;2023-05-07T05:14:59;100627.09;;;9.20;58.49
68656;BME280;55638;51.122;13.606;2023-05-07T05:16:32;100629.44;;;9.25;58.63
68656;BME280;55638;51.122;13.606;2023-05-07T05:18:04;100626.75;;;9.25;58.71
68656;BME280;55638;51.122;13.606;2023-05-07T05:19:36;100628.16;;;9.31;58.64
68656;BME280;55638;51.122;13.606;2023-05-07T05:21:08;100629.88;;;9.32;58.44
68656;BME280;55638;51.122;13.606;2023-05-07T05:22:41;100617.91;;;9.36;58.14
68656;BME280;55638;51.122;13.606;2023-05-07T05:24:15;100627.72;;;9.37;58.20
68656;BME280;55638;51.122;13.606;2023-05-07T05:25:47;100624.91;;;9.38;58.28
68656;BME280;55638;51.122;13.606;2023-05-07T05:27:19;100617.69;;;9.39;58.00
68656;BME280;55638;51.122;13.606;2023-05-07T05:28:51;100627.38;;;9.41;58.01
68656;BME280;55638;51.122;13.606;2023-05-07T05:30:25;100632.53;;;9.44;58.15
68656;BME280;55638;51.122;13.606;2023-05-07T05:31:57;100634.16;;;9.47;58.46
68656;BME280;55638;51.122;13.606;2023-05-07T05:33:30;100633.19;;;9.48;58.32
68656;BME280;55638;51.122;13.606;2023-05-07T05:35:07;100641.94;;;9.52;58.25
68656;BME280;55638;51.122;13.606;2023-05-07T05:36:40;100647.94;;;9.55;58.21
68656;BME280;55638;51.122;13.606;2023-05-07T05:38:13;100648.69;;;9.57;57.76
68656;BME280;55638;51.122;13.606;2023-05-07T05:39:45;100645.78;;;9.60;57.67
68656;BME280;55638;51.122;13.606;2023-05-07T05:41:17;100646.66;;;9.61;57.72
68656;BME280;55638;51.122;13.606;2023-05-07T05:42:49;100647.28;;;9.64;57.82
68656;BME280;55638;51.122;13.606;2023-05-07T05:44:21;100652.56;;;9.66;58.01
68656;BME280;55638;51.122;13.606;2023-05-07T05:45:55;100651.38;;;9.70;58.03
68656;BME280;55638;51.122;13.606;2023-05-07T05:47:27;100654.78;;;9.72;58.05
68656;BME280;55638;51.122;13.606;2023-05-07T05:49:00;100650.06;;;9.76;58.04
68656;BME280;55638;51.122;13.606;2023-05-07T05:50:32;100654.13;;;9.81;57.79
68656;BME280;55638;51.122;13.606;2023-05-07T05:52:04;100663.06;;;9.82;57.47
68656;BME280;55638;51.122;13.606;2023-05-07T05:53:36;100660.13;;;9.85;57.33
68656;BME280;55638;51.122;13.606;2023-05-07T05:55:09;100654.75;;;9.85;57.10
68656;BME280;55638;51.122;13.606;2023-05-07T05:56:42;100665.31;;;9.88;56.82
68656;BME280;55638;51.122;13.606;2023-05-07T05:58:14;100666.19;;;9.88;56.84
68656;BME280;55638;51.122;13.606;2023-05-07T05:59:53;100670.59;;;9.89;56.88
68656;BME280;55638;51.122;13.606;2023-05-07T06:01:25;100671.56;;;9.88;56.84
68656;BME280;55638;51.122;13.606;2023-05-07T06:02:59;100674.28;;;9.88;56.75
68656;BME280;55638;51.122;13.606;2023-05-07T06:04:31;100667.91;;;9.89;56.91
68656;BME280;55638;51.122;13.606;2023-05-07T06:06:04;100670.59;;;9.89;56.76
68656;BME280;55638;51.122;13.606;2023-05-07T06:07:36;100672.53;;;9.87;56.54
68656;BME280;55638;51.122;13.606;2023-05-07T06:09:07;100678.78;;;9.88;56.53
68656;BME280;55638;51.122;13.606;2023-05-07T06:10:44;100675.34;;;9.86;56.56
68656;BME280;55638;51.122;13.606;2023-05-07T06:12:16;100670.91;;;9.85;56.55
68656;BME280;55638;51.122;13.606;2023-05-07T06:13:48;100684.50;;;9.83;56.65
68656;BME280;55638;51.122;13.606;2023-05-07T06:15:20;100683.53;;;9.84;56.66
68656;BME280;55638;51.122;13.606;2023-05-07T06:16:52;100686.22;;;9.84;56.61
68656;BME280;55638;51.122;13.606;2023-05-07T06:18:24;100687.06;;;9.85;56.59
68656;BME280;55638;51.122;13.606;2023-05-07T06:19:56;100689.66;;;9.86;56.53
68656;BME280;55638;51.122;13.606;2023-05-07T06:21:28;100687.06;;;9.85;56.49
68656;BME280;55638;51.122;13.606;2023-05-07T06:23:00;100693.34;;;9.85;56.44
68656;BME280;55638;51.122;13.606;2023-05-07T06:24:33;100687.97;;;9.85;56.83
68656;BME280;55638;51.122;13.606;2023-05-07T06:26:06;100683.53;;;9.84;56.73
68656;BME280;55638;51.122;13.606;2023-05-07T06:27:43;100678.91;;;9.86;56.52
68656;BME280;55638;51.122;13.606;2023-05-07T06:29:14;100685.13;;;9.87;56.33
68656;BME280;55638;51.122;13.606;2023-05-07T06:30:47;100683.31;;;9.87;56.23
68656;BME280;55638;51.122;13.606;2023-05-07T06:32:21;100675.22;;;9.87;56.32
68656;BME280;55638;51.122;13.606;2023-05-07T06:33:54;100685.03;;;9.88;56.41
68656;BME280;55638;51.122;13.606;2023-05-07T06:35:30;100687.75;;;9.88;56.18
68656;BME280;55638;51.122;13.606;2023-05-07T06:37:02;100687.47;;;9.91;56.38
68656;BME280;55638;51.122;13.606;2023-05-07T06:39:00;100690.94;;;9.93;56.52
68656;BME280;55638;51.122;13.606;2023-05-07T06:40:31;100689.94;;;9.94;56.41
68656;BME280;55638;51.122;13.606;2023-05-07T06:42:04;100690.72;;;9.96;56.12
68656;BME280;55638;51.122;13.606;2023-05-07T06:43:37;100693.41;;;9.96;56.05
68656;BME280;55638;51.122;13.606;2023-05-07T06:45:34;100696.84;;;9.99;56.14
68656;BME280;55638;51.122;13.606;2023-05-07T06:47:06;100702.13;;;10.00;56.18
68656;BME280;55638;51.122;13.606;2023-05-07T06:48:39;100713.75;;;10.01;55.90
68656;BME280;55638;51.122;13.606;2023-05-07T06:50:11;100708.38;;;10.01;55.49
68656;BME280;55638;51.122;13.606;2023-05-07T06:51:43;100702.88;;;10.02;55.52
68656;BME280;55638;51.122;13.606;2023-05-07T06:53:15;100699.19;;;10.03;55.34
68656;BME280;55638;51.122;13.606;2023-05-07T06:54:47;100704.72;;;10.02;55.38
68656;BME280;55638;51.122;13.606;2023-05-07T06:56:21;100702.13;;;10.00;55.35
68656;BME280;55638;51.122;13.606;2023-05-07T06:57:54;100709.34;;;10.00;55.42
68656;BME280;55638;51.122;13.606;2023-05-07T06:59:27;100705.88;;;9.98;55.63
68656;BME280;55638;51.122;13.606;2023-05-07T07:00:59;100706.88;;;9.96;55.47
68656;BME280;55638;51.122;13.606;2023-05-07T07:02:31;100706.03;;;9.96;55.59
68656;BME280;55638;51.122;13.606;2023-05-07T07:04:03;100706.03;;;9.96;55.75
68656;BME280;55638;51.122;13.606;2023-05-07T07:05:36;100703.19;;;9.98;55.57
68656;BME280;55638;51.122;13.606;2023-05-07T07:07:08;100706.03;;;9.96;55.52
68656;BME280;55638;51.122;13.606;2023-05-07T07:08:40;100703.31;;;9.96;55.59
68656;BME280;55638;51.122;13.606;2023-05-07T07:10:12;100712.25;;;9.96;55.50
68656;BME280;55638;51.122;13.606;2023-05-07T07:11:44;100711.41;;;9.96;55.46
68656;BME280;55638;51.122;13.606;2023-05-07T07:13:15;100709.69;;;9.95;55.28
68656;BME280;55638;51.122;13.606;2023-05-07T07:14:47;100713.34;;;9.94;55.27
68656;BME280;55638;51.122;13.606;2023-05-07T07:16:21;100717.00;;;9.93;55.28
68656;BME280;55638;51.122;13.606;2023-05-07T07:17:54;100707.22;;;9.92;55.30
68656;BME280;55638;51.122;13.606;2023-05-07T07:19:28;100710.78;;;9.92;55.26
68656;BME280;55638;51.122;13.606;2023-05-07T07:21:01;100715.53;;;9.89;55.25
68656;BME280;55638;51.122;13.606;2023-05-07T07:22:32;100720.50;;;9.82;55.25
68656;BME280;55638;51.122;13.606;2023-05-07T07:24:05;100713.34;;;9.81;55.47
68656;BME280;55638;51.122;13.606;2023-05-07T07:25:36;100724.34;;;9.78;55.67
68656;BME280;55638;51.122;13.606;2023-05-07T07:27:09;100723.50;;;9.78;55.78
68656;BME280;55638;51.122;13.606;2023-05-07T07:28:47;100719.19;;;9.75;55.48
68656;BME280;55638;51.122;13.606;2023-05-07T07:30:22;100726.19;;;9.78;55.70
68656;BME280;55638;51.122;13.606;2023-05-07T07:31:54;100720.72;;;9.79;55.56
68656;BME280;55638;51.122;13.606;2023-05-07T07:33:26;100718.97;;;9.78;55.74
68656;BME280;55638;51.122;13.606;2023-05-07T07:34:58;100722.53;;;9.79;55.94
68656;BME280;55638;51.122;13.606;2023-05-07T07:36:31;100716.19;;;9.80;55.90
68656;BME280;55638;51.122;13.606;2023-05-07T07:38:16;100726.72;;;9.83;55.77
68656;BME280;55638;51.122;13.606;2023-05-07T07:39:47;100725.44;;;9.88;55.46
68656;BME280;55638;51.122;13.606;2023-05-07T07:41:20;100728.00;;;9.90;55.37
68656;BME280;55638;51.122;13.606;2023-05-07T07:42:52;100729.72;;;9.91;55.44
68656;BME280;55638;51.122;13.606;2023-05-07T07:44:25;100716.38;;;9.89;55.23
68656;BME280;55638;51.122;13.606;2023-05-07T07:46:02;100729.72;;;9.91;55.43
68656;BME280;55638;51.122;13.606;2023-05-07T07:47:35;100726.06;;;9.92;55.35
68656;BME280;55638;51.122;13.606;2023-05-07T07:49:07;100722.28;;;9.94;55.58
68656;BME280;55638;51.122;13.606;2023-05-07T07:50:39;100733.81;;;9.96;55.24
68656;BME280;55638;51.122;13.606;2023-05-07T07:52:18;100735.50;;;9.98;55.11
68656;BME280;55638;51.122;13.606;2023-05-07T07:53:50;100731.97;;;9.97;54.72
68656;BME280;55638;51.122;13.606;2023-05-07T07:55:22;100737.03;;;10.02;54.97
68656;BME280;55638;51.122;13.606;2023-05-07T07:56:57;100734.13;;;10.05;54.98
68656;BME280;55638;51.122;13.606;2023-05-07T07:58:29;100738.31;;;10.09;55.04
68656;BME280;55638;51.122;13.606;2023-05-07T08:00:02;100732.69;;;10.12;54.78
68656;BME280;55638;51.122;13.606;2023-05-07T08:01:36;100733.44;;;10.14;54.70
68656;BME280;55638;51.122;13.606;2023-05-07T08:03:11;100724.16;;;10.18;54.40
68656;BME280;55638;51.122;13.606;2023-05-07T08:04:47;100727.59;;;10.20;54.38
68656;BME280;55638;51.122;13.606;2023-05-07T08:06:19;100733.75;;;10.22;54.41
68656;BME280;55638;51.122;13.606;2023-05-07T08:07:51;100735.22;;;10.26;53.84